sensor_id;sensor_type;location;lat;lon;timestamp;temperature;humidity
48768;DHT22;34933;40.968;14.538;2022-08-01T00:01:42;26.30;66.80
48768;DHT22;34933;40.968;14.538;2022-08-01T00:04:27;26.30;69.60
48768;DHT22;34933;40.968;14.538;2022-08-01T00:07:11;26.10;69.60
48768;DHT22;34933;40.968;14.538;2022-08-01T00:09:56;26.00;67.90
48768;DHT22;34933;40.968;14.538;2022-08-01T00:12:41;26.00;67.80
48768;DHT22;34933;40.968;14.538;2022-08-01T00:15:26;25.90;70.20
48768;DHT22;34933;40.968;14.538;2022-08-01T00:18:11;25.80;69.90
48768;DHT22;34933;40.968;14.538;2022-08-01T00:20:56;25.70;69.80
48768;DHT22;34933;40.968;14.538;2022-08-01T00:23:40;25.70;70.40
48768;DHT22;34933;40.968;14.538;2022-08-01T00:26:25;25.70;69.20
48768;DHT22;34933;40.968;14.538;2022-08-01T00:29:09;25.70;69.90
48768;DHT22;34933;40.968;14.538;2022-08-01T00:31:54;25.60;68.20
48768;DHT22;34933;40.968;14.538;2022-08-01T00:34:39;25.60;70.40
48768;DHT22;34933;40.968;14.538;2022-08-01T00:37:23;25.50;69.80
48768;DHT22;34933;40.968;14.538;2022-08-01T00:40:08;25.50;70.00
48768;DHT22;34933;40.968;14.538;2022-08-01T00:42:53;25.80;67.00
48768;DHT22;34933;40.968;14.538;2022-08-01T00:45:37;25.80;70.20
48768;DHT22;34933;40.968;14.538;2022-08-01T00:48:22;25.70;69.70
48768;DHT22;34933;40.968;14.538;2022-08-01T00:51:07;25.70;70.30
48768;DHT22;34933;40.968;14.538;2022-08-01T00:53:53;25.60;70.10
48768;DHT22;34933;40.968;14.538;2022-08-01T00:56:37;25.60;70.90
48768;DHT22;34933;40.968;14.538;2022-08-01T00:59:22;25.60;70.70
48768;DHT22;34933;40.968;14.538;2022-08-01T01:02:07;25.50;71.10
48768;DHT22;34933;40.968;14.538;2022-08-01T01:04:51;25.30;71.30
48768;DHT22;34933;40.968;14.538;2022-08-01T01:13:38;25.20;69.30
48768;DHT22;34933;40.968;14.538;2022-08-01T01:16:22;25.20;71.30
48768;DHT22;34933;40.968;14.538;2022-08-01T01:19:13;25.20;70.20
48768;DHT22;34933;40.968;14.538;2022-08-01T01:22:21;25.20;73.30
48768;DHT22;34933;40.968;14.538;2022-08-01T01:32:43;24.90;70.30
48768;DHT22;34933;40.968;14.538;2022-08-01T01:35:06;24.80;70.80
48768;DHT22;34933;40.968;14.538;2022-08-01T01:37:58;25.00;69.40
48768;DHT22;34933;40.968;14.538;2022-08-01T01:40:45;25.30;66.20
48768;DHT22;34933;40.968;14.538;2022-08-01T01:43:30;25.30;70.80
48768;DHT22;34933;40.968;14.538;2022-08-01T01:46:20;25.10;70.40
48768;DHT22;34933;40.968;14.538;2022-08-01T01:49:08;25.20;67.60
48768;DHT22;34933;40.968;14.538;2022-08-01T01:51:56;25.40;66.60
48768;DHT22;34933;40.968;14.538;2022-08-01T01:54:45;25.80;65.80
48768;DHT22;34933;40.968;14.538;2022-08-01T01:57:32;25.90;67.30
48768;DHT22;34933;40.968;14.538;2022-08-01T02:00:19;26.00;65.20
48768;DHT22;34933;40.968;14.538;2022-08-01T02:03:05;26.40;64.70
48768;DHT22;34933;40.968;14.538;2022-08-01T02:05:52;26.30;65.10
48768;DHT22;34933;40.968;14.538;2022-08-01T02:08:40;26.10;65.80
48768;DHT22;34933;40.968;14.538;2022-08-01T02:11:26;26.10;66.40
48768;DHT22;34933;40.968;14.538;2022-08-01T02:14:11;26.30;64.90
48768;DHT22;34933;40.968;14.538;2022-08-01T02:16:57;26.40;64.40
48768;DHT22;34933;40.968;14.538;2022-08-01T02:19:43;26.50;65.70
48768;DHT22;34933;40.968;14.538;2022-08-01T02:22:42;26.00;66.70
48768;DHT22;34933;40.968;14.538;2022-08-01T02:25:32;25.90;65.80
48768;DHT22;34933;40.968;14.538;2022-08-01T02:28:25;25.80;65.60
48768;DHT22;34933;40.968;14.538;2022-08-01T02:31:13;25.90;65.50
48768;DHT22;34933;40.968;14.538;2022-08-01T02:34:04;26.10;64.60
48768;DHT22;34933;40.968;14.538;2022-08-01T02:36:49;26.20;65.20
48768;DHT22;34933;40.968;14.538;2022-08-01T02:39:36;26.20;65.30
48768;DHT22;34933;40.968;14.538;2022-08-01T02:42:23;26.10;65.50
48768;DHT22;34933;40.968;14.538;2022-08-01T02:45:10;25.90;65.60
48768;DHT22;34933;40.968;14.538;2022-08-01T02:48:00;25.80;67.30
48768;DHT22;34933;40.968;14.538;2022-08-01T02:50:47;25.60;66.40
48768;DHT22;34933;40.968;14.538;2022-08-01T02:53:33;25.90;65.90
48768;DHT22;34933;40.968;14.538;2022-08-01T02:56:21;25.90;66.30
48768;DHT22;34933;40.968;14.538;2022-08-01T02:59:18;25.90;67.10
48768;DHT22;34933;40.968;14.538;2022-08-01T03:02:03;25.90;65.90
48768;DHT22;34933;40.968;14.538;2022-08-01T03:04:50;26.10;65.70
48768;DHT22;34933;40.968;14.538;2022-08-01T03:07:36;26.30;65.40
48768;DHT22;34933;40.968;14.538;2022-08-01T03:10:22;26.70;64.70
48768;DHT22;34933;40.968;14.538;2022-08-01T03:13:08;27.00;64.40
48768;DHT22;34933;40.968;14.538;2022-08-01T03:15:54;27.00;65.10
48768;DHT22;34933;40.968;14.538;2022-08-01T03:18:42;27.00;64.20
48768;DHT22;34933;40.968;14.538;2022-08-01T03:21:30;27.00;64.40
48768;DHT22;34933;40.968;14.538;2022-08-01T03:24:16;27.10;64.20
48768;DHT22;34933;40.968;14.538;2022-08-01T03:27:03;27.10;64.40
48768;DHT22;34933;40.968;14.538;2022-08-01T03:29:49;27.10;64.30
48768;DHT22;34933;40.968;14.538;2022-08-01T03:32:34;27.20;64.30
48768;DHT22;34933;40.968;14.538;2022-08-01T03:35:20;27.20;63.80
48768;DHT22;34933;40.968;14.538;2022-08-01T03:38:08;27.20;63.80
48768;DHT22;34933;40.968;14.538;2022-08-01T03:41:04;27.10;63.70
48768;DHT22;34933;40.968;14.538;2022-08-01T03:44:00;27.20;63.90
48768;DHT22;34933;40.968;14.538;2022-08-01T03:46:58;27.10;64.30
48768;DHT22;34933;40.968;14.538;2022-08-01T03:49:44;27.00;64.30
48768;DHT22;34933;40.968;14.538;2022-08-01T03:52:32;26.90;64.50
48768;DHT22;34933;40.968;14.538;2022-08-01T03:55:18;26.90;64.60
48768;DHT22;34933;40.968;14.538;2022-08-01T03:58:03;26.90;64.60
48768;DHT22;34933;40.968;14.538;2022-08-01T04:00:49;26.90;64.50
48768;DHT22;34933;40.968;14.538;2022-08-01T04:03:35;26.90;64.60
48768;DHT22;34933;40.968;14.538;2022-08-01T04:06:20;27.00;64.60
48768;DHT22;34933;40.968;14.538;2022-08-01T04:09:04;26.90;64.30
48768;DHT22;34933;40.968;14.538;2022-08-01T04:11:51;26.90;64.90
48768;DHT22;34933;40.968;14.538;2022-08-01T04:14:35;27.00;64.50
48768;DHT22;34933;40.968;14.538;2022-08-01T04:17:20;26.90;64.80
48768;DHT22;34933;40.968;14.538;2022-08-01T04:20:05;26.80;65.20
48768;DHT22;34933;40.968;14.538;2022-08-01T04:22:50;26.80;65.30
48768;DHT22;34933;40.968;14.538;2022-08-01T04:25:36;26.90;65.30
48768;DHT22;34933;40.968;14.538;2022-08-01T04:28:23;26.80;65.20
48768;DHT22;34933;40.968;14.538;2022-08-01T04:31:09;26.80;65.40
48768;DHT22;34933;40.968;14.538;2022-08-01T04:33:56;26.80;65.60
48768;DHT22;34933;40.968;14.538;2022-08-01T04:36:41;26.70;66.00
48768;DHT22;34933;40.968;14.538;2022-08-01T04:39:28;26.60;66.30
48768;DHT22;34933;40.968;14.538;2022-08-01T04:42:15;26.50;67.50
48768;DHT22;34933;40.968;14.538;2022-08-01T04:45:00;26.30;67.00
48768;DHT22;34933;40.968;14.538;2022-08-01T04:47:45;26.20;67.70
48768;DHT22;34933;40.968;14.538;2022-08-01T04:50:32;26.20;67.70
48768;DHT22;34933;40.968;14.538;2022-08-01T04:53:17;26.10;67.80
48768;DHT22;34933;40.968;14.538;2022-08-01T04:56:02;26.20;67.60
48768;DHT22;34933;40.968;14.538;2022-08-01T04:58:47;26.10;67.70
48768;DHT22;34933;40.968;14.538;2022-08-01T05:01:32;26.10;69.00
48768;DHT22;34933;40.968;14.538;2022-08-01T05:04:17;26.10;68.50
48768;DHT22;34933;40.968;14.538;2022-08-01T05:07:02;26.10;68.10
48768;DHT22;34933;40.968;14.538;2022-08-01T05:09:47;26.20;68.10
48768;DHT22;34933;40.968;14.538;2022-08-01T05:12:32;26.30;68.80
48768;DHT22;34933;40.968;14.538;2022-08-01T05:15:16;26.60;68.10
48768;DHT22;34933;40.968;14.538;2022-08-01T05:18:01;26.60;67.50
48768;DHT22;34933;40.968;14.538;2022-08-01T05:20:45;26.60;67.30
48768;DHT22;34933;40.968;14.538;2022-08-01T05:23:31;26.70;68.10
48768;DHT22;34933;40.968;14.538;2022-08-01T05:26:15;26.90;68.60
48768;DHT22;34933;40.968;14.538;2022-08-01T05:29:00;27.00;68.90
48768;DHT22;34933;40.968;14.538;2022-08-01T05:31:45;27.00;69.30
48768;DHT22;34933;40.968;14.538;2022-08-01T05:34:30;27.00;70.30
48768;DHT22;34933;40.968;14.538;2022-08-01T05:37:15;27.10;68.90
48768;DHT22;34933;40.968;14.538;2022-08-01T05:40:00;27.20;68.60
48768;DHT22;34933;40.968;14.538;2022-08-01T05:42:44;27.20;68.90
48768;DHT22;34933;40.968;14.538;2022-08-01T05:45:29;27.30;69.60
48768;DHT22;34933;40.968;14.538;2022-08-01T05:48:14;27.40;70.00
48768;DHT22;34933;40.968;14.538;2022-08-01T05:50:58;27.40;69.80
48768;DHT22;34933;40.968;14.538;2022-08-01T05:53:43;27.50;70.40
48768;DHT22;34933;40.968;14.538;2022-08-01T05:56:28;27.50;68.30
48768;DHT22;34933;40.968;14.538;2022-08-01T05:59:12;27.70;69.90
48768;DHT22;34933;40.968;14.538;2022-08-01T06:01:57;27.70;69.10
48768;DHT22;34933;40.968;14.538;2022-08-01T06:04:41;27.80;69.90
48768;DHT22;34933;40.968;14.538;2022-08-01T06:07:26;27.80;71.20
48768;DHT22;34933;40.968;14.538;2022-08-01T06:10:11;27.90;69.40
48768;DHT22;34933;40.968;14.538;2022-08-01T06:12:55;28.10;68.90
48768;DHT22;34933;40.968;14.538;2022-08-01T06:15:40;28.10;69.60
48768;DHT22;34933;40.968;14.538;2022-08-01T06:18:25;28.00;69.80
48768;DHT22;34933;40.968;14.538;2022-08-01T06:21:09;28.00;69.60
48768;DHT22;34933;40.968;14.538;2022-08-01T06:23:54;28.10;70.10
48768;DHT22;34933;40.968;14.538;2022-08-01T06:26:38;28.10;69.80
48768;DHT22;34933;40.968;14.538;2022-08-01T06:29:23;28.20;70.70
48768;DHT22;34933;40.968;14.538;2022-08-01T06:32:08;28.20;69.70
48768;DHT22;34933;40.968;14.538;2022-08-01T06:34:54;28.30;69.80
48768;DHT22;34933;40.968;14.538;2022-08-01T06:37:38;28.40;70.50
48768;DHT22;34933;40.968;14.538;2022-08-01T06:40:23;28.40;70.70
48768;DHT22;34933;40.968;14.538;2022-08-01T06:43:08;28.60;69.60
48768;DHT22;34933;40.968;14.538;2022-08-01T06:45:52;28.60;69.80
48768;DHT22;34933;40.968;14.538;2022-08-01T06:48:37;28.70;69.20
48768;DHT22;34933;40.968;14.538;2022-08-01T06:51:23;28.80;69.40
48768;DHT22;34933;40.968;14.538;2022-08-01T06:54:08;28.80;68.00
48768;DHT22;34933;40.968;14.538;2022-08-01T06:56:53;28.80;69.20
48768;DHT22;34933;40.968;14.538;2022-08-01T06:59:37;28.90;70.70
48768;DHT22;34933;40.968;14.538;2022-08-01T07:02:23;28.80;68.90
48768;DHT22;34933;40.968;14.538;2022-08-01T07:05:08;28.80;70.10
48768;DHT22;34933;40.968;14.538;2022-08-01T07:07:53;28.90;70.00
48768;DHT22;34933;40.968;14.538;2022-08-01T07:10:38;29.00;70.40
48768;DHT22;34933;40.968;14.538;2022-08-01T07:13:22;29.00;70.10
48768;DHT22;34933;40.968;14.538;2022-08-01T07:16:08;29.00;70.70
48768;DHT22;34933;40.968;14.538;2022-08-01T07:18:53;29.00;69.50
48768;DHT22;34933;40.968;14.538;2022-08-01T07:21:38;29.10;70.20
48768;DHT22;34933;40.968;14.538;2022-08-01T07:24:23;29.30;70.10
48768;DHT22;34933;40.968;14.538;2022-08-01T07:27:08;29.40;69.80
48768;DHT22;34933;40.968;14.538;2022-08-01T07:29:52;29.40;68.90
48768;DHT22;34933;40.968;14.538;2022-08-01T07:32:37;29.40;69.00
48768;DHT22;34933;40.968;14.538;2022-08-01T07:35:22;29.40;68.60
48768;DHT22;34933;40.968;14.538;2022-08-01T07:38:07;29.40;69.00
48768;DHT22;34933;40.968;14.538;2022-08-01T07:40:51;29.50;68.70
48768;DHT22;34933;40.968;14.538;2022-08-01T07:43:36;29.50;68.90
48768;DHT22;34933;40.968;14.538;2022-08-01T07:46:20;29.60;68.80
48768;DHT22;34933;40.968;14.538;2022-08-01T07:49:05;29.60;69.20
48768;DHT22;34933;40.968;14.538;2022-08-01T07:51:50;29.70;69.30
48768;DHT22;34933;40.968;14.538;2022-08-01T07:54:35;29.80;68.30
48768;DHT22;34933;40.968;14.538;2022-08-01T07:57:20;29.80;69.50
48768;DHT22;34933;40.968;14.538;2022-08-01T08:00:05;30.00;69.00
48768;DHT22;34933;40.968;14.538;2022-08-01T08:02:50;30.10;68.60
48768;DHT22;34933;40.968;14.538;2022-08-01T08:05:35;30.00;69.60
48768;DHT22;34933;40.968;14.538;2022-08-01T08:08:20;30.30;68.50
48768;DHT22;34933;40.968;14.538;2022-08-01T08:11:04;30.40;68.60
48768;DHT22;34933;40.968;14.538;2022-08-01T08:13:49;30.50;67.80
48768;DHT22;34933;40.968;14.538;2022-08-01T08:16:34;30.60;67.70
48768;DHT22;34933;40.968;14.538;2022-08-01T08:19:18;30.40;67.90
48768;DHT22;34933;40.968;14.538;2022-08-01T08:22:03;30.30;68.20
48768;DHT22;34933;40.968;14.538;2022-08-01T08:24:49;30.40;68.00
48768;DHT22;34933;40.968;14.538;2022-08-01T08:27:34;30.50;68.60
48768;DHT22;34933;40.968;14.538;2022-08-01T08:30:19;30.60;67.90
48768;DHT22;34933;40.968;14.538;2022-08-01T08:33:03;30.60;66.50
48768;DHT22;34933;40.968;14.538;2022-08-01T08:35:48;30.50;68.00
48768;DHT22;34933;40.968;14.538;2022-08-01T08:38:32;30.50;67.20
48768;DHT22;34933;40.968;14.538;2022-08-01T08:41:18;30.50;68.40
48768;DHT22;34933;40.968;14.538;2022-08-01T08:44:07;30.70;67.80
48768;DHT22;34933;40.968;14.538;2022-08-01T08:46:52;30.80;67.90
48768;DHT22;34933;40.968;14.538;2022-08-01T08:49:37;30.70;67.30
48768;DHT22;34933;40.968;14.538;2022-08-01T08:52:22;30.70;67.30
48768;DHT22;34933;40.968;14.538;2022-08-01T08:55:08;30.70;67.30
48768;DHT22;34933;40.968;14.538;2022-08-01T08:57:54;30.80;67.50
48768;DHT22;34933;40.968;14.538;2022-08-01T09:00:40;30.90;66.60
48768;DHT22;34933;40.968;14.538;2022-08-01T09:03:25;31.20;67.20
48768;DHT22;34933;40.968;14.538;2022-08-01T09:06:10;31.40;67.00
48768;DHT22;34933;40.968;14.538;2022-08-01T09:08:56;31.30;66.10
48768;DHT22;34933;40.968;14.538;2022-08-01T09:11:41;31.30;66.80
48768;DHT22;34933;40.968;14.538;2022-08-01T09:14:26;31.20;66.40
48768;DHT22;34933;40.968;14.538;2022-08-01T09:17:14;31.10;67.10
48768;DHT22;34933;40.968;14.538;2022-08-01T09:20:00;31.30;66.40
48768;DHT22;34933;40.968;14.538;2022-08-01T09:22:45;31.40;65.00
48768;DHT22;34933;40.968;14.538;2022-08-01T09:25:30;31.40;66.40
48768;DHT22;34933;40.968;14.538;2022-08-01T09:28:17;31.30;66.00
48768;DHT22;34933;40.968;14.538;2022-08-01T09:31:15;31.40;66.10
48768;DHT22;34933;40.968;14.538;2022-08-01T09:34:03;31.50;66.30
48768;DHT22;34933;40.968;14.538;2022-08-01T09:36:54;31.40;66.10
48768;DHT22;34933;40.968;14.538;2022-08-01T09:39:40;31.70;65.90
48768;DHT22;34933;40.968;14.538;2022-08-01T09:42:27;31.60;65.80
48768;DHT22;34933;40.968;14.538;2022-08-01T09:45:32;31.60;66.50
48768;DHT22;34933;40.968;14.538;2022-08-01T09:48:17;31.90;66.20
48768;DHT22;34933;40.968;14.538;2022-08-01T09:51:02;32.10;65.30
48768;DHT22;34933;40.968;14.538;2022-08-01T09:53:48;31.90;65.80
48768;DHT22;34933;40.968;14.538;2022-08-01T09:56:38;32.00;66.80
48768;DHT22;34933;40.968;14.538;2022-08-01T09:59:34;31.90;65.30
48768;DHT22;34933;40.968;14.538;2022-08-01T10:02:46;32.00;65.50
48768;DHT22;34933;40.968;14.538;2022-08-01T10:05:35;32.00;66.00
48768;DHT22;34933;40.968;14.538;2022-08-01T10:08:20;32.30;65.70
48768;DHT22;34933;40.968;14.538;2022-08-01T10:11:16;32.40;65.60
48768;DHT22;34933;40.968;14.538;2022-08-01T10:14:02;32.40;65.60
48768;DHT22;34933;40.968;14.538;2022-08-01T10:16:48;32.40;65.70
48768;DHT22;34933;40.968;14.538;2022-08-01T10:19:36;32.30;65.80
48768;DHT22;34933;40.968;14.538;2022-08-01T10:22:24;32.40;65.90
48768;DHT22;34933;40.968;14.538;2022-08-01T10:25:09;32.60;65.00
48768;DHT22;34933;40.968;14.538;2022-08-01T10:27:54;32.80;64.80
48768;DHT22;34933;40.968;14.538;2022-08-01T10:30:42;33.30;65.00
48768;DHT22;34933;40.968;14.538;2022-08-01T10:33:28;33.70;64.50
48768;DHT22;34933;40.968;14.538;2022-08-01T10:36:13;33.80;63.80
48768;DHT22;34933;40.968;14.538;2022-08-01T10:38:58;33.70;64.50
48768;DHT22;34933;40.968;14.538;2022-08-01T10:41:43;34.10;63.80
48768;DHT22;34933;40.968;14.538;2022-08-01T10:44:30;34.60;63.50
48768;DHT22;34933;40.968;14.538;2022-08-01T10:47:23;34.50;62.90
48768;DHT22;34933;40.968;14.538;2022-08-01T10:50:29;34.50;63.90
48768;DHT22;34933;40.968;14.538;2022-08-01T10:56:03;34.90;62.80
48768;DHT22;34933;40.968;14.538;2022-08-01T10:58:49;34.60;61.50
48768;DHT22;34933;40.968;14.538;2022-08-01T11:01:33;34.20;61.90
48768;DHT22;34933;40.968;14.538;2022-08-01T11:04:18;33.80;62.10
48768;DHT22;34933;40.968;14.538;2022-08-01T11:07:08;33.60;63.00
48768;DHT22;34933;40.968;14.538;2022-08-01T11:10:04;33.70;62.50
48768;DHT22;34933;40.968;14.538;2022-08-01T11:12:48;33.90;62.50
48768;DHT22;34933;40.968;14.538;2022-08-01T11:15:34;33.70;61.90
48768;DHT22;34933;40.968;14.538;2022-08-01T11:18:29;33.50;62.40
48768;DHT22;34933;40.968;14.538;2022-08-01T11:21:14;33.90;62.20
48768;DHT22;34933;40.968;14.538;2022-08-01T11:23:59;34.00;62.00
48768;DHT22;34933;40.968;14.538;2022-08-01T11:27:20;34.00;62.30
48768;DHT22;34933;40.968;14.538;2022-08-01T11:32:56;34.70;62.80
48768;DHT22;34933;40.968;14.538;2022-08-01T11:41:45;34.90;61.50
48768;DHT22;34933;40.968;14.538;2022-08-01T11:44:48;35.40;61.50
48768;DHT22;34933;40.968;14.538;2022-08-01T11:47:49;35.40;60.80
48768;DHT22;34933;40.968;14.538;2022-08-01T11:50:35;35.70;61.40
48768;DHT22;34933;40.968;14.538;2022-08-01T11:53:20;35.80;61.10
48768;DHT22;34933;40.968;14.538;2022-08-01T11:56:05;35.80;61.40
48768;DHT22;34933;40.968;14.538;2022-08-01T11:58:58;36.10;62.60
48768;DHT22;34933;40.968;14.538;2022-08-01T12:01:43;35.70;60.80
48768;DHT22;34933;40.968;14.538;2022-08-01T12:04:51;35.20;61.40
48768;DHT22;34933;40.968;14.538;2022-08-01T12:07:38;35.50;61.70
48768;DHT22;34933;40.968;14.538;2022-08-01T12:10:28;36.30;61.10
48768;DHT22;34933;40.968;14.538;2022-08-01T12:13:16;36.10;60.50
48768;DHT22;34933;40.968;14.538;2022-08-01T12:16:07;36.40;61.50
48768;DHT22;34933;40.968;14.538;2022-08-01T12:18:52;36.60;60.50
48768;DHT22;34933;40.968;14.538;2022-08-01T12:21:38;37.20;60.30
48768;DHT22;34933;40.968;14.538;2022-08-01T12:24:23;37.60;60.90
48768;DHT22;34933;40.968;14.538;2022-08-01T12:27:09;37.70;59.50
48768;DHT22;34933;40.968;14.538;2022-08-01T12:29:55;38.00;59.10
48768;DHT22;34933;40.968;14.538;2022-08-01T12:32:41;38.10;58.90
48768;DHT22;34933;40.968;14.538;2022-08-01T12:35:28;37.60;59.50
48768;DHT22;34933;40.968;14.538;2022-08-01T12:38:19;37.30;59.00
48768;DHT22;34933;40.968;14.538;2022-08-01T12:41:04;37.90;59.10
48768;DHT22;34933;40.968;14.538;2022-08-01T12:43:48;38.30;58.70
48768;DHT22;34933;40.968;14.538;2022-08-01T12:46:33;37.90;58.10
48768;DHT22;34933;40.968;14.538;2022-08-01T12:49:18;37.70;58.90
48768;DHT22;34933;40.968;14.538;2022-08-01T12:52:03;37.80;58.40
48768;DHT22;34933;40.968;14.538;2022-08-01T12:57:49;38.10;58.00
48768;DHT22;34933;40.968;14.538;2022-08-01T13:00:36;39.00;58.10
48768;DHT22;34933;40.968;14.538;2022-08-01T13:03:21;39.90;57.10
48768;DHT22;34933;40.968;14.538;2022-08-01T13:06:13;38.60;57.80
48768;DHT22;34933;40.968;14.538;2022-08-01T13:09:09;39.20;58.00
48768;DHT22;34933;40.968;14.538;2022-08-01T13:11:55;40.40;56.90
48768;DHT22;34933;40.968;14.538;2022-08-01T13:14:40;40.50;56.00
48768;DHT22;34933;40.968;14.538;2022-08-01T13:17:31;41.40;56.30
48768;DHT22;34933;40.968;14.538;2022-08-01T13:20:30;41.70;56.30
48768;DHT22;34933;40.968;14.538;2022-08-01T13:23:17;42.30;56.00
48768;DHT22;34933;40.968;14.538;2022-08-01T13:26:02;42.80;55.30
48768;DHT22;34933;40.968;14.538;2022-08-01T13:29:04;42.90;55.20
48768;DHT22;34933;40.968;14.538;2022-08-01T13:31:49;42.40;55.00
48768;DHT22;34933;40.968;14.538;2022-08-01T13:34:34;41.70;55.20
48768;DHT22;34933;40.968;14.538;2022-08-01T13:37:18;42.10;55.00
48768;DHT22;34933;40.968;14.538;2022-08-01T13:40:03;43.10;55.00
48768;DHT22;34933;40.968;14.538;2022-08-01T13:42:49;43.90;54.30
48768;DHT22;34933;40.968;14.538;2022-08-01T13:45:35;43.80;53.40
48768;DHT22;34933;40.968;14.538;2022-08-01T13:48:19;43.50;54.50
48768;DHT22;34933;40.968;14.538;2022-08-01T13:51:04;43.00;53.40
48768;DHT22;34933;40.968;14.538;2022-08-01T13:53:49;43.40;53.90
48768;DHT22;34933;40.968;14.538;2022-08-01T13:56:33;44.10;53.30
48768;DHT22;34933;40.968;14.538;2022-08-01T13:59:18;44.30;53.80
48768;DHT22;34933;40.968;14.538;2022-08-01T14:02:03;44.60;52.70
48768;DHT22;34933;40.968;14.538;2022-08-01T14:04:48;44.70;52.70
48768;DHT22;34933;40.968;14.538;2022-08-01T14:07:32;43.60;52.40
48768;DHT22;34933;40.968;14.538;2022-08-01T14:10:17;43.50;52.90
48768;DHT22;34933;40.968;14.538;2022-08-01T14:13:01;43.90;53.00
48768;DHT22;34933;40.968;14.538;2022-08-01T14:15:46;44.30;52.70
48768;DHT22;34933;40.968;14.538;2022-08-01T14:18:31;43.90;52.30
48768;DHT22;34933;40.968;14.538;2022-08-01T14:21:16;44.60;53.00
48768;DHT22;34933;40.968;14.538;2022-08-01T14:24:01;44.40;52.40
48768;DHT22;34933;40.968;14.538;2022-08-01T14:26:45;44.60;51.60
48768;DHT22;34933;40.968;14.538;2022-08-01T14:29:31;42.70;52.20
48768;DHT22;34933;40.968;14.538;2022-08-01T14:32:15;43.30;52.40
48768;DHT22;34933;40.968;14.538;2022-08-01T14:35:01;43.90;52.80
48768;DHT22;34933;40.968;14.538;2022-08-01T14:37:46;45.00;51.90
48768;DHT22;34933;40.968;14.538;2022-08-01T14:40:31;45.00;51.40
48768;DHT22;34933;40.968;14.538;2022-08-01T14:43:16;44.00;52.30
48768;DHT22;34933;40.968;14.538;2022-08-01T14:46:01;44.50;51.90
48768;DHT22;34933;40.968;14.538;2022-08-01T14:48:47;44.40;50.80
48768;DHT22;34933;40.968;14.538;2022-08-01T14:51:31;44.50;51.80
48768;DHT22;34933;40.968;14.538;2022-08-01T14:54:18;44.20;51.20
48768;DHT22;34933;40.968;14.538;2022-08-01T14:57:03;44.10;51.10
48768;DHT22;34933;40.968;14.538;2022-08-01T14:59:47;43.70;51.50
48768;DHT22;34933;40.968;14.538;2022-08-01T15:02:32;44.30;51.80
48768;DHT22;34933;40.968;14.538;2022-08-01T15:05:17;44.50;51.60
48768;DHT22;34933;40.968;14.538;2022-08-01T15:08:02;44.70;51.40
48768;DHT22;34933;40.968;14.538;2022-08-01T15:10:47;44.90;50.70
48768;DHT22;34933;40.968;14.538;2022-08-01T15:13:31;45.10;51.40
48768;DHT22;34933;40.968;14.538;2022-08-01T15:16:16;44.50;50.10
48768;DHT22;34933;40.968;14.538;2022-08-01T15:19:00;44.00;51.30
48768;DHT22;34933;40.968;14.538;2022-08-01T15:21:45;44.40;51.50
48768;DHT22;34933;40.968;14.538;2022-08-01T15:24:30;44.80;50.90
48768;DHT22;34933;40.968;14.538;2022-08-01T15:27:14;45.50;51.10
48768;DHT22;34933;40.968;14.538;2022-08-01T15:29:59;45.20;50.70
48768;DHT22;34933;40.968;14.538;2022-08-01T15:32:44;44.90;50.60
48768;DHT22;34933;40.968;14.538;2022-08-01T15:35:28;44.60;51.40
48768;DHT22;34933;40.968;14.538;2022-08-01T15:38:13;45.00;50.60
48768;DHT22;34933;40.968;14.538;2022-08-01T15:40:58;44.50;50.80
48768;DHT22;34933;40.968;14.538;2022-08-01T15:43:42;44.00;50.80
48768;DHT22;34933;40.968;14.538;2022-08-01T15:46:27;44.50;50.60
48768;DHT22;34933;40.968;14.538;2022-08-01T15:49:11;44.80;50.80
48768;DHT22;34933;40.968;14.538;2022-08-01T15:51:56;44.60;50.80
48768;DHT22;34933;40.968;14.538;2022-08-01T15:54:41;43.60;50.70
48768;DHT22;34933;40.968;14.538;2022-08-01T15:57:26;43.10;51.20
48768;DHT22;34933;40.968;14.538;2022-08-01T16:00:12;43.30;51.30
48768;DHT22;34933;40.968;14.538;2022-08-01T16:02:58;44.00;50.80
48768;DHT22;34933;40.968;14.538;2022-08-01T16:05:42;43.90;51.00
48768;DHT22;34933;40.968;14.538;2022-08-01T16:08:27;43.70;50.80
48768;DHT22;34933;40.968;14.538;2022-08-01T16:11:12;44.20;51.00
48768;DHT22;34933;40.968;14.538;2022-08-01T16:13:56;43.90;51.20
48768;DHT22;34933;40.968;14.538;2022-08-01T16:16:41;42.90;51.20
48768;DHT22;34933;40.968;14.538;2022-08-01T16:19:25;43.00;51.60
48768;DHT22;34933;40.968;14.538;2022-08-01T16:22:10;43.30;51.10
48768;DHT22;34933;40.968;14.538;2022-08-01T16:24:55;42.50;51.50
48768;DHT22;34933;40.968;14.538;2022-08-01T16:27:39;41.80;52.00
48768;DHT22;34933;40.968;14.538;2022-08-01T16:30:24;41.00;52.40
48768;DHT22;34933;40.968;14.538;2022-08-01T16:33:08;41.40;51.90
48768;DHT22;34933;40.968;14.538;2022-08-01T16:35:54;41.80;51.60
48768;DHT22;34933;40.968;14.538;2022-08-01T16:38:39;41.50;51.80
48768;DHT22;34933;40.968;14.538;2022-08-01T16:41:23;41.50;52.50
48768;DHT22;34933;40.968;14.538;2022-08-01T16:44:08;41.40;52.20
48768;DHT22;34933;40.968;14.538;2022-08-01T16:46:53;41.10;52.10
48768;DHT22;34933;40.968;14.538;2022-08-01T16:49:37;40.70;52.30
48768;DHT22;34933;40.968;14.538;2022-08-01T16:52:22;39.70;53.00
48768;DHT22;34933;40.968;14.538;2022-08-01T16:55:07;39.70;53.30
48768;DHT22;34933;40.968;14.538;2022-08-01T16:57:51;39.60;54.00
48768;DHT22;34933;40.968;14.538;2022-08-01T17:00:36;40.20;52.90
48768;DHT22;34933;40.968;14.538;2022-08-01T17:03:22;40.40;53.00
48768;DHT22;34933;40.968;14.538;2022-08-01T17:06:07;40.20;52.90
48768;DHT22;34933;40.968;14.538;2022-08-01T17:08:51;40.20;53.00
48768;DHT22;34933;40.968;14.538;2022-08-01T17:11:36;39.30;53.60
48768;DHT22;34933;40.968;14.538;2022-08-01T17:14:21;39.40;53.70
48768;DHT22;34933;40.968;14.538;2022-08-01T17:17:06;38.40;53.90
48768;DHT22;34933;40.968;14.538;2022-08-01T17:19:51;38.40;54.20
48768;DHT22;34933;40.968;14.538;2022-08-01T17:22:35;38.90;53.90
48768;DHT22;34933;40.968;14.538;2022-08-01T17:25:20;38.70;53.60
48768;DHT22;34933;40.968;14.538;2022-08-01T17:28:05;38.30;53.90
48768;DHT22;34933;40.968;14.538;2022-08-01T17:30:49;37.70;54.50
48768;DHT22;34933;40.968;14.538;2022-08-01T17:33:34;37.30;54.50
48768;DHT22;34933;40.968;14.538;2022-08-01T17:36:18;36.70;54.80
48768;DHT22;34933;40.968;14.538;2022-08-01T17:39:04;36.30;55.70
48768;DHT22;34933;40.968;14.538;2022-08-01T17:41:51;35.60;55.70